This is the latest recevied weather packets stored in our database for station/object WW1TA. If no packets are shown the sender has not sent any weather packets the latest 1 day(s).
| Time | Temp. | Humidity | Pressure | Rain* | Wind** | Luminosity | Snow |
|---|---|---|---|---|---|---|---|
| 1778019334 | 23.33° C | 54% | 1018.6 hPa | 0 mm | 0.89 m/s, 214° | 231 W/m² | - |
| 1778019031 | 23.33° C | 54% | 1018.7 hPa | 0 mm | 0.45 m/s, 260° | 231 W/m² | - |
| 1778018728 | 25° C | 51% | 1018.8 hPa | 0 mm | 0.45 m/s, 274° | 287 W/m² | - |
| 1778018426 | 23.89° C | 54% | 1019 hPa | 0 mm | 0 m/s | 318 W/m² | - |
| 1778018126 | 23.33° C | 57% | 1018.9 hPa | 0 mm | 0 m/s | 111 W/m² | - |
| 1778017821 | 23.33° C | 56% | 1018.7 hPa | 0 mm | 0.89 m/s, 227° | 115 W/m² | - |
| 1778017519 | 23.89° C | 56% | 1018.8 hPa | 0 mm | 0.89 m/s, 260° | 335 W/m² | - |
| 1778017216 | 23.89° C | 55% | 1019.1 hPa | 0 mm | 0.45 m/s, 262° | 142 W/m² | - |
| 1778016914 | 23.89° C | 54% | 1019 hPa | 0 mm | 0 m/s | 399 W/m² | - |
| 1778016610 | 24.44° C | 53% | 1019 hPa | 0 mm | 1.34 m/s, 209° | 111 W/m² | - |
| 1778016306 | 25° C | 52% | 1018.8 hPa | 0 mm | 0 m/s | 458 W/m² | - |
| 1778016003 | 25° C | 49% | 1019 hPa | 0 mm | 0 m/s | 448 W/m² | - |
| 1778015701 | 25° C | 51% | 1018.7 hPa | 0 mm | 1.34 m/s, 246° | 504 W/m² | - |
| 1778015397 | 25.56° C | 49% | 1018.7 hPa | 0 mm | 0.45 m/s, 253° | 355 W/m² | - |
| 1778015094 | 25° C | 52% | 1018.8 hPa | 0 mm | 0 m/s | 542 W/m² | - |
| 1778014790 | 25° C | 53% | 1018.9 hPa | 0 mm | 0 m/s | 157 W/m² | - |
| 1778014489 | 25.56° C | 50% | 1019 hPa | 0 mm | 0.89 m/s, 296° | 135 W/m² | - |
| 1778014185 | 25° C | 52% | 1018.7 hPa | 0 mm | 0 m/s | 120 W/m² | - |
| 1778013884 | 25° C | 52% | 1018.7 hPa | 0 mm | 0 m/s | 159 W/m² | - |
| 1778013580 | 25.56° C | 50% | 1018.9 hPa | 0 mm | 0 m/s | 273 W/m² | - |
| 1778013277 | 25.56° C | 50% | 1018.9 hPa | 0 mm | 0.89 m/s, 278° | 197 W/m² | - |
| 1778012973 | 26.11° C | 50% | 1018.7 hPa | 0 mm | 0.89 m/s, 249° | 165 W/m² | - |
| 1778012670 | 24.44° C | 51% | 1019 hPa | 0 mm | 1.79 m/s, 252° | 592 W/m² | - |
| 1778012366 | 25° C | 51% | 1018.8 hPa | 0 mm | 1.34 m/s, 248° | 530 W/m² | - |
| 1778012063 | 25.56° C | 52% | 1018.9 hPa | 0 mm | 0.45 m/s, 224° | 618 W/m² | - |
* Rain latest hour (hover to see other rain measurements)
** Current wind speed in m/s (hover to see current wind gust speed)